sensor_id;sensor_type;location;lat;lon;timestamp;pressure;altitude;pressure_sealevel;temperature;humidity
13734;BME280;43298;52.560;13.508;2024-01-27T00:01:50;100818.25;;;5.74;100.00
13734;BME280;43298;52.560;13.508;2024-01-27T00:04:16;100818.13;;;5.82;100.00
13734;BME280;43298;52.560;13.508;2024-01-27T00:06:42;100836.78;;;5.88;100.00
13734;BME280;43298;52.560;13.508;2024-01-27T00:09:08;100834.22;;;5.88;100.00
13734;BME280;43298;52.560;13.508;2024-01-27T00:11:34;100839.50;;;5.82;100.00
13734;BME280;43298;52.560;13.508;2024-01-27T00:14:00;100838.66;;;5.82;100.00
13734;BME280;43298;52.560;13.508;2024-01-27T00:16:26;100839.50;;;5.82;100.00
13734;BME280;43298;52.560;13.508;2024-01-27T00:18:52;100846.47;;;5.73;100.00
13734;BME280;43298;52.560;13.508;2024-01-27T00:21:18;100858.50;;;5.72;100.00
13734;BME280;43298;52.560;13.508;2024-01-27T00:23:44;100860.28;;;5.67;100.00
13734;BME280;43298;52.560;13.508;2024-01-27T00:26:09;100867.03;;;5.71;100.00
13734;BME280;43298;52.560;13.508;2024-01-27T00:28:36;100883.47;;;5.63;100.00
13734;BME280;43298;52.560;13.508;2024-01-27T00:31:02;100874.91;;;5.64;100.00
13734;BME280;43298;52.560;13.508;2024-01-27T00:33:28;100878.47;;;5.57;100.00
13734;BME280;43298;52.560;13.508;2024-01-27T00:35:54;100890.38;;;5.59;100.00
13734;BME280;43298;52.560;13.508;2024-01-27T00:38:20;100890.41;;;5.58;100.00
13734;BME280;43298;52.560;13.508;2024-01-27T00:40:45;100891.03;;;5.69;100.00
13734;BME280;43298;52.560;13.508;2024-01-27T00:43:11;100908.19;;;5.67;100.00
13734;BME280;43298;52.560;13.508;2024-01-27T00:45:37;100910.88;;;5.61;100.00
13734;BME280;43298;52.560;13.508;2024-01-27T00:48:03;100915.25;;;5.56;100.00
13734;BME280;43298;52.560;13.508;2024-01-27T00:50:29;100929.72;;;5.58;100.00
13734;BME280;43298;52.560;13.508;2024-01-27T00:52:55;100928.81;;;5.61;100.00
13734;BME280;43298;52.560;13.508;2024-01-27T00:55:21;100934.06;;;5.55;100.00
13734;BME280;43298;52.560;13.508;2024-01-27T00:57:46;100934.94;;;5.54;100.00
13734;BME280;43298;52.560;13.508;2024-01-27T01:00:13;100935.78;;;5.54;100.00
13734;BME280;43298;52.560;13.508;2024-01-27T01:02:39;100934.03;;;5.56;100.00
13734;BME280;43298;52.560;13.508;2024-01-27T01:05:06;100932.28;;;5.58;100.00
13734;BME280;43298;52.560;13.508;2024-01-27T01:07:33;100948.44;;;5.62;100.00
13734;BME280;43298;52.560;13.508;2024-01-27T01:09:59;100946.78;;;5.59;100.00
13734;BME280;43298;52.560;13.508;2024-01-27T01:12:25;100952.66;;;5.66;100.00
13734;BME280;43298;52.560;13.508;2024-01-27T01:14:52;100952.66;;;5.66;100.00
13734;BME280;43298;52.560;13.508;2024-01-27T01:17:18;100957.75;;;5.67;100.00
13734;BME280;43298;52.560;13.508;2024-01-27T01:19:44;100976.53;;;5.71;100.00
13734;BME280;43298;52.560;13.508;2024-01-27T01:22:10;100979.03;;;5.74;100.00
13734;BME280;43298;52.560;13.508;2024-01-27T01:24:36;100981.72;;;5.66;100.00
13734;BME280;43298;52.560;13.508;2024-01-27T01:27:02;100975.81;;;5.63;100.00
13734;BME280;43298;52.560;13.508;2024-01-27T01:29:28;100980.91;;;5.64;100.00
13734;BME280;43298;52.560;13.508;2024-01-27T01:31:54;100992.06;;;5.62;100.00
13734;BME280;43298;52.560;13.508;2024-01-27T01:34:20;100987.03;;;5.57;100.00
13734;BME280;43298;52.560;13.508;2024-01-27T01:36:46;100986.94;;;5.62;100.00
13734;BME280;43298;52.560;13.508;2024-01-27T01:39:13;100992.09;;;5.60;100.00
13734;BME280;43298;52.560;13.508;2024-01-27T01:41:40;101000.72;;;5.55;100.00
13734;BME280;43298;52.560;13.508;2024-01-27T01:44:06;101003.28;;;5.55;100.00
13734;BME280;43298;52.560;13.508;2024-01-27T01:46:33;101016.16;;;5.53;100.00
13734;BME280;43298;52.560;13.508;2024-01-27T01:49:00;101005.84;;;5.55;100.00
13734;BME280;43298;52.560;13.508;2024-01-27T01:51:29;101015.28;;;5.56;100.00
13734;BME280;43298;52.560;13.508;2024-01-27T01:53:58;101017.06;;;5.49;100.00
13734;BME280;43298;52.560;13.508;2024-01-27T01:56:25;101027.34;;;5.48;100.00
13734;BME280;43298;52.560;13.508;2024-01-27T01:58:51;101015.38;;;5.50;100.00
13734;BME280;43298;52.560;13.508;2024-01-27T02:01:17;101024.66;;;5.55;100.00
13734;BME280;43298;52.560;13.508;2024-01-27T02:03:57;101025.66;;;5.47;100.00
13734;BME280;43298;52.560;13.508;2024-01-27T02:06:23;101031.75;;;5.41;100.00
13734;BME280;43298;52.560;13.508;2024-01-27T02:08:49;101027.50;;;5.40;100.00
13734;BME280;43298;52.560;13.508;2024-01-27T02:11:15;101035.97;;;5.44;100.00
13734;BME280;43298;52.560;13.508;2024-01-27T02:13:41;101024.91;;;5.42;100.00
13734;BME280;43298;52.560;13.508;2024-01-27T02:16:08;101024.06;;;5.40;100.00
13734;BME280;43298;52.560;13.508;2024-01-27T02:18:34;101017.03;;;5.51;100.00
13734;BME280;43298;52.560;13.508;2024-01-27T02:20:59;101024.66;;;5.55;100.00
13734;BME280;43298;52.560;13.508;2024-01-27T02:23:25;101027.25;;;5.54;100.00
13734;BME280;43298;52.560;13.508;2024-01-27T02:25:51;101017.09;;;5.48;100.00
13734;BME280;43298;52.560;13.508;2024-01-27T02:28:17;101022.16;;;5.52;100.00
13734;BME280;43298;52.560;13.508;2024-01-27T02:30:44;101003.22;;;5.59;100.00
13734;BME280;43298;52.560;13.508;2024-01-27T02:33:10;101016.00;;;5.62;100.00
13734;BME280;43298;52.560;13.508;2024-01-27T02:35:36;101016.16;;;5.53;100.00
13734;BME280;43298;52.560;13.508;2024-01-27T02:38:02;101023.81;;;5.55;100.00
13734;BME280;43298;52.560;13.508;2024-01-27T02:40:27;101005.13;;;5.48;100.00
13734;BME280;43298;52.560;13.508;2024-01-27T02:42:53;101012.78;;;5.50;100.00
13734;BME280;43298;52.560;13.508;2024-01-27T02:45:19;101009.28;;;5.55;100.00
13734;BME280;43298;52.560;13.508;2024-01-27T02:47:45;101010.97;;;5.56;100.00
13734;BME280;43298;52.560;13.508;2024-01-27T02:50:11;101007.72;;;5.47;100.00
13734;BME280;43298;52.560;13.508;2024-01-27T02:52:37;101004.28;;;5.48;100.00
13734;BME280;43298;52.560;13.508;2024-01-27T02:55:03;100994.78;;;5.54;100.00
13734;BME280;43298;52.560;13.508;2024-01-27T02:57:29;100988.84;;;5.49;100.00
13734;BME280;43298;52.560;13.508;2024-01-27T02:59:55;100995.69;;;5.50;100.00
13734;BME280;43298;52.560;13.508;2024-01-27T03:02:21;100986.31;;;5.48;100.00
13734;BME280;43298;52.560;13.508;2024-01-27T03:04:46;100985.56;;;5.43;100.00
13734;BME280;43298;52.560;13.508;2024-01-27T03:07:12;100979.53;;;5.45;100.00
13734;BME280;43298;52.560;13.508;2024-01-27T03:09:38;100978.72;;;5.45;100.00
13734;BME280;43298;52.560;13.508;2024-01-27T03:12:04;100973.50;;;5.48;100.00
13734;BME280;43298;52.560;13.508;2024-01-27T03:14:30;100973.47;;;5.49;100.00
13734;BME280;43298;52.560;13.508;2024-01-27T03:16:56;100976.94;;;5.47;100.00
13734;BME280;43298;52.560;13.508;2024-01-27T03:19:22;100973.56;;;5.45;100.00
13734;BME280;43298;52.560;13.508;2024-01-27T03:21:47;100970.00;;;5.52;100.00
13734;BME280;43298;52.560;13.508;2024-01-27T03:24:13;100969.25;;;5.47;100.00
13734;BME280;43298;52.560;13.508;2024-01-27T03:26:39;100988.03;;;5.49;100.00
13734;BME280;43298;52.560;13.508;2024-01-27T03:29:05;100975.25;;;5.46;100.00
13734;BME280;43298;52.560;13.508;2024-01-27T03:31:34;100978.81;;;5.39;100.00
13734;BME280;43298;52.560;13.508;2024-01-27T03:34:01;100984.72;;;5.41;100.00
13734;BME280;43298;52.560;13.508;2024-01-27T03:36:27;100973.66;;;5.40;100.00
13734;BME280;43298;52.560;13.508;2024-01-27T03:38:55;100972.78;;;5.40;100.00
13734;BME280;43298;52.560;13.508;2024-01-27T03:41:21;100971.16;;;5.36;100.00
13734;BME280;43298;52.560;13.508;2024-01-27T03:43:47;100969.56;;;5.29;100.00
13734;BME280;43298;52.560;13.508;2024-01-27T03:46:13;100984.22;;;5.21;100.00
13734;BME280;43298;52.560;13.508;2024-01-27T03:48:39;100980.88;;;5.16;100.00
13734;BME280;43298;52.560;13.508;2024-01-27T03:51:05;100980.09;;;5.11;100.00
13734;BME280;43298;52.560;13.508;2024-01-27T03:53:31;100978.44;;;5.08;100.00
13734;BME280;43298;52.560;13.508;2024-01-27T03:55:57;100981.00;;;5.10;100.00
13734;BME280;43298;52.560;13.508;2024-01-27T03:58:30;100974.16;;;5.09;100.00
13734;BME280;43298;52.560;13.508;2024-01-27T04:00:57;100981.94;;;5.03;100.00
13734;BME280;43298;52.560;13.508;2024-01-27T04:03:26;100983.72;;;4.98;100.00
13734;BME280;43298;52.560;13.508;2024-01-27T04:05:52;100987.28;;;4.88;100.00
13734;BME280;43298;52.560;13.508;2024-01-27T04:08:18;100974.47;;;4.88;100.00
13734;BME280;43298;52.560;13.508;2024-01-27T04:10:44;100979.81;;;4.74;100.00
13734;BME280;43298;52.560;13.508;2024-01-27T04:13:09;100975.53;;;4.75;100.00
13734;BME280;43298;52.560;13.508;2024-01-27T04:15:35;100969.53;;;4.77;100.00
13734;BME280;43298;52.560;13.508;2024-01-27T04:18:07;100966.16;;;4.74;100.00
13734;BME280;43298;52.560;13.508;2024-01-27T04:20:34;100972.25;;;4.65;100.00
13734;BME280;43298;52.560;13.508;2024-01-27T04:23:01;100963.91;;;4.53;100.00
13734;BME280;43298;52.560;13.508;2024-01-27T04:25:28;100955.34;;;4.54;100.00
13734;BME280;43298;52.560;13.508;2024-01-27T04:27:53;100954.44;;;4.56;100.00
13734;BME280;43298;52.560;13.508;2024-01-27T04:30:19;100960.44;;;4.57;100.00
13734;BME280;43298;52.560;13.508;2024-01-27T04:32:45;100949.94;;;4.73;100.00
13734;BME280;43298;52.560;13.508;2024-01-27T04:35:12;100958.41;;;4.77;100.00
13734;BME280;43298;52.560;13.508;2024-01-27T04:37:38;100953.22;;;4.81;100.00
13734;BME280;43298;52.560;13.508;2024-01-27T04:40:05;100961.78;;;4.80;100.00
13734;BME280;43298;52.560;13.508;2024-01-27T04:42:34;100960.97;;;4.78;100.00
13734;BME280;43298;52.560;13.508;2024-01-27T04:45:01;100960.16;;;4.75;100.00
13734;BME280;43298;52.560;13.508;2024-01-27T04:47:27;100967.78;;;4.79;100.00
13734;BME280;43298;52.560;13.508;2024-01-27T04:49:54;100962.69;;;4.78;100.00
13734;BME280;43298;52.560;13.508;2024-01-27T04:52:19;100969.53;;;4.77;100.00
13734;BME280;43298;52.560;13.508;2024-01-27T04:54:45;100966.94;;;4.79;100.00
13734;BME280;43298;52.560;13.508;2024-01-27T04:57:11;100965.25;;;4.78;100.00
13734;BME280;43298;52.560;13.508;2024-01-27T04:59:37;100949.72;;;4.87;100.00
13734;BME280;43298;52.560;13.508;2024-01-27T05:02:02;100953.91;;;4.94;100.00
13734;BME280;43298;52.560;13.508;2024-01-27T05:04:29;100954.81;;;4.90;100.00
13734;BME280;43298;52.560;13.508;2024-01-27T05:06:55;100965.13;;;4.84;100.00
13734;BME280;43298;52.560;13.508;2024-01-27T05:09:20;100977.09;;;4.86;100.00
13734;BME280;43298;52.560;13.508;2024-01-27T05:11:46;100975.34;;;4.87;100.00
13734;BME280;43298;52.560;13.508;2024-01-27T05:14:13;100980.63;;;4.78;100.00
13734;BME280;43298;52.560;13.508;2024-01-27T05:16:39;100974.53;;;4.86;100.00
13734;BME280;43298;52.560;13.508;2024-01-27T05:19:05;100971.16;;;4.81;100.00
13734;BME280;43298;52.560;13.508;2024-01-27T05:21:30;100983.00;;;4.90;100.00
13734;BME280;43298;52.560;13.508;2024-01-27T05:23:56;100985.59;;;4.87;100.00
13734;BME280;43298;52.560;13.508;2024-01-27T05:26:22;100989.81;;;4.89;100.00
13734;BME280;43298;52.560;13.508;2024-01-27T05:28:48;100971.91;;;4.88;100.00
13734;BME280;43298;52.560;13.508;2024-01-27T05:31:14;100983.00;;;4.88;100.00
13734;BME280;43298;52.560;13.508;2024-01-27T05:33:42;100977.03;;;4.88;100.00
13734;BME280;43298;52.560;13.508;2024-01-27T05:36:08;100982.22;;;4.86;100.00
13734;BME280;43298;52.560;13.508;2024-01-27T05:38:34;100977.94;;;4.84;100.00
13734;BME280;43298;52.560;13.508;2024-01-27T05:41:03;100987.44;;;4.79;100.00
13734;BME280;43298;52.560;13.508;2024-01-27T05:43:29;100978.81;;;4.83;100.00
13734;BME280;43298;52.560;13.508;2024-01-27T05:45:55;100985.56;;;4.90;100.00
13734;BME280;43298;52.560;13.508;2024-01-27T05:48:21;100987.38;;;4.83;100.00
13734;BME280;43298;52.560;13.508;2024-01-27T05:50:58;100983.00;;;4.90;100.00
13734;BME280;43298;52.560;13.508;2024-01-27T05:53:25;100982.91;;;4.96;100.00
13734;BME280;43298;52.560;13.508;2024-01-27T05:55:51;100981.13;;;4.99;100.00
13734;BME280;43298;52.560;13.508;2024-01-27T05:58:18;100988.81;;;5.01;100.00
13734;BME280;43298;52.560;13.508;2024-01-27T06:00:47;100987.16;;;4.97;100.00
13734;BME280;43298;52.560;13.508;2024-01-27T06:03:13;100992.22;;;5.03;100.00
13734;BME280;43298;52.560;13.508;2024-01-27T06:05:41;100986.94;;;5.10;100.00
13734;BME280;43298;52.560;13.508;2024-01-27T06:08:08;100998.06;;;5.09;100.00
13734;BME280;43298;52.560;13.508;2024-01-27T06:10:34;101001.53;;;5.07;100.00
13734;BME280;43298;52.560;13.508;2024-01-27T06:13:03;101009.19;;;5.10;100.00
13734;BME280;43298;52.560;13.508;2024-01-27T06:15:29;101011.63;;;5.16;100.00
13734;BME280;43298;52.560;13.508;2024-01-27T06:17:54;101005.53;;;5.23;100.00
13734;BME280;43298;52.560;13.508;2024-01-27T06:20:20;101008.91;;;5.26;100.00
13734;BME280;43298;52.560;13.508;2024-01-27T06:22:46;101013.13;;;5.30;100.00
13734;BME280;43298;52.560;13.508;2024-01-27T06:25:12;101022.56;;;5.27;100.00
13734;BME280;43298;52.560;13.508;2024-01-27T06:27:38;101029.28;;;5.34;100.00
13734;BME280;43298;52.560;13.508;2024-01-27T06:30:05;101040.41;;;5.33;100.00
13734;BME280;43298;52.560;13.508;2024-01-27T06:32:31;101035.34;;;5.28;100.00
13734;BME280;43298;52.560;13.508;2024-01-27T06:34:57;101038.59;;;5.39;100.00
13734;BME280;43298;52.560;13.508;2024-01-27T06:37:22;101049.66;;;5.44;100.00
13734;BME280;43298;52.560;13.508;2024-01-27T06:39:48;101040.28;;;5.43;100.00
13734;BME280;43298;52.560;13.508;2024-01-27T06:42:14;101053.88;;;5.47;100.00
13734;BME280;43298;52.560;13.508;2024-01-27T06:44:40;101063.31;;;5.45;100.00
13734;BME280;43298;52.560;13.508;2024-01-27T06:47:06;101071.81;;;5.47;100.00
13734;BME280;43298;52.560;13.508;2024-01-27T06:49:31;101073.59;;;5.45;100.00
13734;BME280;43298;52.560;13.508;2024-01-27T06:51:59;101088.06;;;5.49;100.00
13734;BME280;43298;52.560;13.508;2024-01-27T06:54:26;101092.38;;;5.44;100.00
13734;BME280;43298;52.560;13.508;2024-01-27T06:56:51;101095.75;;;5.47;100.00
13734;BME280;43298;52.560;13.508;2024-01-27T06:59:17;101099.19;;;5.46;100.00
13734;BME280;43298;52.560;13.508;2024-01-27T07:01:47;101100.00;;;5.50;100.00
13734;BME280;43298;52.560;13.508;2024-01-27T07:04:16;101106.03;;;5.47;100.00
13734;BME280;43298;52.560;13.508;2024-01-27T07:06:43;101103.41;;;5.50;100.00
13734;BME280;43298;52.560;13.508;2024-01-27T07:09:09;101111.16;;;5.46;100.00
13734;BME280;43298;52.560;13.508;2024-01-27T07:11:36;101119.69;;;5.46;100.00
13734;BME280;43298;52.560;13.508;2024-01-27T07:14:03;101115.47;;;5.44;100.00
13734;BME280;43298;52.560;13.508;2024-01-27T07:16:29;101112.84;;;5.47;100.00
13734;BME280;43298;52.560;13.508;2024-01-27T07:18:55;101111.13;;;5.49;100.00
13734;BME280;43298;52.560;13.508;2024-01-27T07:21:20;101117.94;;;5.50;100.00
13734;BME280;43298;52.560;13.508;2024-01-27T07:23:46;101120.47;;;5.53;100.00
13734;BME280;43298;52.560;13.508;2024-01-27T07:26:13;101127.38;;;5.46;100.00
13734;BME280;43298;52.560;13.508;2024-01-27T07:28:39;101129.06;;;5.50;100.00
13734;BME280;43298;52.560;13.508;2024-01-27T07:31:05;101132.50;;;5.46;100.00
13734;BME280;43298;52.560;13.508;2024-01-27T07:33:31;101143.66;;;5.44;100.00
13734;BME280;43298;52.560;13.508;2024-01-27T07:35:57;101141.09;;;5.44;100.00
13734;BME280;43298;52.560;13.508;2024-01-27T07:38:23;101147.88;;;5.48;100.00
13734;BME280;43298;52.560;13.508;2024-01-27T07:40:49;101150.47;;;5.46;100.00
13734;BME280;43298;52.560;13.508;2024-01-27T07:43:14;101153.84;;;5.50;100.00
13734;BME280;43298;52.560;13.508;2024-01-27T07:45:40;101164.13;;;5.48;100.00
13734;BME280;43298;52.560;13.508;2024-01-27T07:48:06;101155.56;;;5.49;100.00
13734;BME280;43298;52.560;13.508;2024-01-27T07:50:33;101158.97;;;5.50;100.00
13734;BME280;43298;52.560;13.508;2024-01-27T07:52:59;101152.00;;;5.59;100.00
13734;BME280;43298;52.560;13.508;2024-01-27T07:55:26;101149.44;;;5.59;100.00
13734;BME280;43298;52.560;13.508;2024-01-27T07:57:51;101151.94;;;5.62;100.00
13734;BME280;43298;52.560;13.508;2024-01-27T08:00:17;101160.44;;;5.64;100.00
13734;BME280;43298;52.560;13.508;2024-01-27T08:02:43;101157.81;;;5.70;100.00
13734;BME280;43298;52.560;13.508;2024-01-27T08:05:09;101168.06;;;5.70;100.00
13734;BME280;43298;52.560;13.508;2024-01-27T08:07:35;101169.00;;;5.66;100.00
13734;BME280;43298;52.560;13.508;2024-01-27T08:10:01;101163.78;;;5.71;100.00
13734;BME280;43298;52.560;13.508;2024-01-27T08:12:27;101168.94;;;5.69;100.00
13734;BME280;43298;52.560;13.508;2024-01-27T08:14:53;101162.84;;;5.76;100.00
13734;BME280;43298;52.560;13.508;2024-01-27T08:17:19;101153.38;;;5.81;100.00
13734;BME280;43298;52.560;13.508;2024-01-27T08:19:45;101162.72;;;5.87;100.00
13734;BME280;43298;52.560;13.508;2024-01-27T08:22:10;101161.78;;;5.91;100.00
13734;BME280;43298;52.560;13.508;2024-01-27T08:24:36;101167.78;;;5.91;100.00
13734;BME280;43298;52.560;13.508;2024-01-27T08:27:02;101175.41;;;5.96;100.00
13734;BME280;43298;52.560;13.508;2024-01-27T08:29:28;101176.09;;;6.05;100.00
13734;BME280;43298;52.560;13.508;2024-01-27T08:31:54;101184.63;;;6.07;100.00
13734;BME280;43298;52.560;13.508;2024-01-27T08:34:19;101191.28;;;6.17;100.00
13734;BME280;43298;52.560;13.508;2024-01-27T08:36:45;101199.03;;;6.16;100.00
13734;BME280;43298;52.560;13.508;2024-01-27T08:39:11;101199.00;;;6.17;100.00
13734;BME280;43298;52.560;13.508;2024-01-27T08:41:38;101211.84;;;6.16;100.00
13734;BME280;43298;52.560;13.508;2024-01-27T08:44:04;101206.66;;;6.20;100.00
13734;BME280;43298;52.560;13.508;2024-01-27T08:46:29;101207.47;;;6.24;100.00
13734;BME280;43298;52.560;13.508;2024-01-27T08:48:55;101220.22;;;6.28;100.00
13734;BME280;43298;52.560;13.508;2024-01-27T08:51:21;101224.50;;;6.28;100.00
13734;BME280;43298;52.560;13.508;2024-01-27T08:53:47;101231.28;;;6.32;100.00
13734;BME280;43298;52.560;13.508;2024-01-27T08:56:16;101227.78;;;6.38;100.00
13734;BME280;43298;52.560;13.508;2024-01-27T08:58:44;101246.63;;;6.38;100.00
13734;BME280;43298;52.560;13.508;2024-01-27T09:01:10;101250.88;;;6.38;100.00
13734;BME280;43298;52.560;13.508;2024-01-27T09:03:39;101253.41;;;6.41;100.00
13734;BME280;43298;52.560;13.508;2024-01-27T09:06:07;101246.50;;;6.44;100.00
13734;BME280;43298;52.560;13.508;2024-01-27T09:08:34;101249.03;;;6.46;100.00
13734;BME280;43298;52.560;13.508;2024-01-27T09:11:02;101258.34;;;6.51;100.00
13734;BME280;43298;52.560;13.508;2024-01-27T09:13:28;101260.06;;;6.52;100.00
13734;BME280;43298;52.560;13.508;2024-01-27T09:15:56;101267.72;;;6.55;100.00
13734;BME280;43298;52.560;13.508;2024-01-27T09:18:22;101279.75;;;6.53;100.00
13734;BME280;43298;52.560;13.508;2024-01-27T09:20:48;101267.63;;;6.60;100.00
13734;BME280;43298;52.560;13.508;2024-01-27T09:23:14;101277.88;;;6.63;100.00
13734;BME280;43298;52.560;13.508;2024-01-27T09:25:40;101279.56;;;6.62;100.00
13734;BME280;43298;52.560;13.508;2024-01-27T09:28:06;101287.16;;;6.71;100.00
13734;BME280;43298;52.560;13.508;2024-01-27T09:30:31;101291.41;;;6.72;100.00
13734;BME280;43298;52.560;13.508;2024-01-27T09:32:57;101290.47;;;6.76;100.00
13734;BME280;43298;52.560;13.508;2024-01-27T09:35:23;101296.41;;;6.80;100.00
13734;BME280;43298;52.560;13.508;2024-01-27T09:37:49;101305.03;;;6.77;100.00
13734;BME280;43298;52.560;13.508;2024-01-27T09:40:15;101315.34;;;6.76;100.00
13734;BME280;43298;52.560;13.508;2024-01-27T09:42:53;101323.84;;;6.79;100.00
13734;BME280;43298;52.560;13.508;2024-01-27T09:45:23;101323.78;;;6.82;100.00
13734;BME280;43298;52.560;13.508;2024-01-27T09:47:49;101327.22;;;6.83;100.00
13734;BME280;43298;52.560;13.508;2024-01-27T09:50:18;101331.47;;;6.84;100.00
13734;BME280;43298;52.560;13.508;2024-01-27T09:52:44;101344.34;;;6.82;100.00
13734;BME280;43298;52.560;13.508;2024-01-27T09:55:10;101350.31;;;6.84;100.00
13734;BME280;43298;52.560;13.508;2024-01-27T09:57:40;101350.31;;;6.84;100.00
13734;BME280;43298;52.560;13.508;2024-01-27T10:00:10;101347.72;;;6.86;100.00
13734;BME280;43298;52.560;13.508;2024-01-27T10:02:39;101350.16;;;6.93;100.00
13734;BME280;43298;52.560;13.508;2024-01-27T10:05:11;101353.44;;;7.01;100.00
13734;BME280;43298;52.560;13.508;2024-01-27T10:07:39;101362.84;;;7.04;100.00
13734;BME280;43298;52.560;13.508;2024-01-27T10:10:05;101361.00;;;7.10;100.00
13734;BME280;43298;52.560;13.508;2024-01-27T10:12:32;101367.78;;;7.14;100.00
13734;BME280;43298;52.560;13.508;2024-01-27T10:15:03;101372.94;;;7.14;100.00
13734;BME280;43298;52.560;13.508;2024-01-27T10:17:29;101390.88;;;7.17;100.00
13734;BME280;43298;52.560;13.508;2024-01-27T10:20:05;101383.91;;;7.22;100.00
13734;BME280;43298;52.560;13.508;2024-01-27T10:22:41;101393.25;;;7.28;100.00
13734;BME280;43298;52.560;13.508;2024-01-27T10:25:08;101406.97;;;7.28;100.00
13734;BME280;43298;52.560;13.508;2024-01-27T10:27:35;101406.91;;;7.33;100.00
13734;BME280;43298;52.560;13.508;2024-01-27T10:30:02;101409.34;;;7.39;100.00
13734;BME280;43298;52.560;13.508;2024-01-27T10:32:28;101422.13;;;7.43;100.00
13734;BME280;43298;52.560;13.508;2024-01-27T10:35:07;101438.41;;;7.45;100.00
13734;BME280;43298;52.560;13.508;2024-01-27T10:37:37;101445.16;;;7.51;100.00
13734;BME280;43298;52.560;13.508;2024-01-27T10:40:04;101461.34;;;7.56;100.00
13734;BME280;43298;52.560;13.508;2024-01-27T10:42:37;101466.59;;;7.51;100.00
13734;BME280;43298;52.560;13.508;2024-01-27T10:45:04;101479.44;;;7.51;100.00
13734;BME280;43298;52.560;13.508;2024-01-27T10:47:32;101496.69;;;7.48;100.00
13734;BME280;43298;52.560;13.508;2024-01-27T10:49:59;101506.09;;;7.49;100.00
13734;BME280;43298;52.560;13.508;2024-01-27T10:52:32;101508.81;;;7.40;100.00
13734;BME280;43298;52.560;13.508;2024-01-27T10:55:04;101503.66;;;7.41;100.00
13734;BME280;43298;52.560;13.508;2024-01-27T10:57:33;101509.56;;;7.46;100.00
13734;BME280;43298;52.560;13.508;2024-01-27T11:00:02;101507.09;;;7.40;100.00
13734;BME280;43298;52.560;13.508;2024-01-27T11:02:33;101513.13;;;7.38;100.00
13734;BME280;43298;52.560;13.508;2024-01-27T11:05:04;101502.84;;;7.38;100.00
13734;BME280;43298;52.560;13.508;2024-01-27T11:07:32;101499.38;;;7.40;100.00
13734;BME280;43298;52.560;13.508;2024-01-27T11:09:58;101499.34;;;7.42;100.00
13734;BME280;43298;52.560;13.508;2024-01-27T11:12:25;101495.97;;;7.40;100.00
13734;BME280;43298;52.560;13.508;2024-01-27T11:14:52;101498.44;;;7.44;100.00
13734;BME280;43298;52.560;13.508;2024-01-27T11:17:19;101502.78;;;7.42;100.00
13734;BME280;43298;52.560;13.508;2024-01-27T11:19:46;101499.25;;;7.48;100.00
13734;BME280;43298;52.560;13.508;2024-01-27T11:22:28;101502.59;;;7.51;100.00
13734;BME280;43298;52.560;13.508;2024-01-27T11:27:40;101496.59;;;7.52;100.00
13734;BME280;43298;52.560;13.508;2024-01-27T11:30:28;101508.59;;;7.53;100.00
13734;BME280;43298;52.560;13.508;2024-01-27T11:32:56;101511.19;;;7.52;100.00
13734;BME280;43298;52.560;13.508;2024-01-27T11:35:25;101520.72;;;7.47;100.00
13734;BME280;43298;52.560;13.508;2024-01-27T11:37:51;101521.59;;;7.44;100.00
13734;BME280;43298;52.560;13.508;2024-01-27T11:40:18;101523.31;;;7.45;100.00
13734;BME280;43298;52.560;13.508;2024-01-27T11:43:00;101538.69;;;7.50;100.00
13734;BME280;43298;52.560;13.508;2024-01-27T11:45:27;101542.13;;;7.49;100.00
13734;BME280;43298;52.560;13.508;2024-01-27T11:47:56;101557.50;;;7.52;100.00
13734;BME280;43298;52.560;13.508;2024-01-27T11:50:22;101557.56;;;7.49;100.00
13734;BME280;43298;52.560;13.508;2024-01-27T11:52:48;101564.41;;;7.50;100.00
13734;BME280;43298;52.560;13.508;2024-01-27T11:55:14;101575.59;;;7.47;100.00
13734;BME280;43298;52.560;13.508;2024-01-27T11:57:41;101573.81;;;7.51;100.00
13734;BME280;43298;52.560;13.508;2024-01-27T12:00:08;101575.50;;;7.53;100.00
13734;BME280;43298;52.560;13.508;2024-01-27T12:02:38;101572.91;;;7.55;100.00
13734;BME280;43298;52.560;13.508;2024-01-27T12:05:08;101571.28;;;7.49;100.00
13734;BME280;43298;52.560;13.508;2024-01-27T12:07:34;101555.84;;;7.49;100.00
13734;BME280;43298;52.560;13.508;2024-01-27T12:10:01;101562.69;;;7.49;100.00
13734;BME280;43298;52.560;13.508;2024-01-27T12:12:26;101545.53;;;7.49;100.00
13734;BME280;43298;52.560;13.508;2024-01-27T12:14:53;101549.91;;;7.44;100.00
13734;BME280;43298;52.560;13.508;2024-01-27T12:17:19;101542.28;;;7.38;100.00
13734;BME280;43298;52.560;13.508;2024-01-27T12:19:48;101535.28;;;7.48;100.00
13734;BME280;43298;52.560;13.508;2024-01-27T12:22:26;101532.69;;;7.48;100.00
13734;BME280;43298;52.560;13.508;2024-01-27T12:24:53;101539.44;;;7.56;100.00
13734;BME280;43298;52.560;13.508;2024-01-27T12:27:20;101536.03;;;7.53;100.00
13734;BME280;43298;52.560;13.508;2024-01-27T12:29:48;101539.47;;;7.53;100.00
13734;BME280;43298;52.560;13.508;2024-01-27T12:32:16;101550.69;;;7.49;100.00
13734;BME280;43298;52.560;13.508;2024-01-27T12:34:43;101545.63;;;7.43;100.00
13734;BME280;43298;52.560;13.508;2024-01-27T12:37:11;101549.97;;;7.41;100.00
13734;BME280;43298;52.560;13.508;2024-01-27T12:39:40;101544.06;;;7.35;100.00
13734;BME280;43298;52.560;13.508;2024-01-27T12:42:06;101539.00;;;7.30;100.00